sensor_id;sensor_type;location;lat;lon;timestamp;temperature;humidity
5134;DHT22;2585;48.696;10.066;2023-06-26T00:01:09;12.90;1.00
5134;DHT22;2585;48.696;10.066;2023-06-26T00:03:36;12.80;1.00
5134;DHT22;2585;48.696;10.066;2023-06-26T00:06:03;12.80;1.00
5134;DHT22;2585;48.696;10.066;2023-06-26T00:08:30;12.70;1.00
5134;DHT22;2585;48.696;10.066;2023-06-26T00:10:56;12.80;1.00
5134;DHT22;2585;48.696;10.066;2023-06-26T00:13:24;12.80;1.00
5134;DHT22;2585;48.696;10.066;2023-06-26T00:15:51;12.80;1.00
5134;DHT22;2585;48.696;10.066;2023-06-26T00:18:18;12.70;1.00
5134;DHT22;2585;48.696;10.066;2023-06-26T00:20:45;12.60;1.00
5134;DHT22;2585;48.696;10.066;2023-06-26T00:23:12;12.60;1.00
5134;DHT22;2585;48.696;10.066;2023-06-26T00:25:40;12.50;1.00
5134;DHT22;2585;48.696;10.066;2023-06-26T00:28:06;12.50;1.00
5134;DHT22;2585;48.696;10.066;2023-06-26T00:30:33;12.50;1.00
5134;DHT22;2585;48.696;10.066;2023-06-26T00:33:01;12.40;1.00
5134;DHT22;2585;48.696;10.066;2023-06-26T00:35:27;12.40;4.90
5134;DHT22;2585;48.696;10.066;2023-06-26T00:37:54;12.40;14.00
5134;DHT22;2585;48.696;10.066;2023-06-26T00:40:21;12.30;16.30
5134;DHT22;2585;48.696;10.066;2023-06-26T00:42:48;12.30;28.40
5134;DHT22;2585;48.696;10.066;2023-06-26T00:45:15;12.30;36.50
5134;DHT22;2585;48.696;10.066;2023-06-26T00:47:45;12.30;26.90
5134;DHT22;2585;48.696;10.066;2023-06-26T00:50:12;12.30;27.70
5134;DHT22;2585;48.696;10.066;2023-06-26T00:52:42;12.30;27.40
5134;DHT22;2585;48.696;10.066;2023-06-26T00:55:09;12.20;25.30
5134;DHT22;2585;48.696;10.066;2023-06-26T00:57:36;12.20;44.10
5134;DHT22;2585;48.696;10.066;2023-06-26T01:00:03;12.20;57.20
5134;DHT22;2585;48.696;10.066;2023-06-26T01:02:30;12.10;60.60
5134;DHT22;2585;48.696;10.066;2023-06-26T01:05:01;12.00;62.90
5134;DHT22;2585;48.696;10.066;2023-06-26T01:07:33;12.00;64.30
5134;DHT22;2585;48.696;10.066;2023-06-26T01:10:05;12.10;65.40
5134;DHT22;2585;48.696;10.066;2023-06-26T01:12:33;12.00;64.90
5134;DHT22;2585;48.696;10.066;2023-06-26T01:15:00;12.00;65.30
5134;DHT22;2585;48.696;10.066;2023-06-26T01:17:27;12.00;66.00
5134;DHT22;2585;48.696;10.066;2023-06-26T01:20:03;12.00;65.90
5134;DHT22;2585;48.696;10.066;2023-06-26T01:23:02;12.00;65.10
5134;DHT22;2585;48.696;10.066;2023-06-26T01:28:24;11.90;65.70
5134;DHT22;2585;48.696;10.066;2023-06-26T01:30:52;11.90;67.50
5134;DHT22;2585;48.696;10.066;2023-06-26T01:33:20;11.90;67.80
5134;DHT22;2585;48.696;10.066;2023-06-26T01:35:47;11.80;67.50
5134;DHT22;2585;48.696;10.066;2023-06-26T01:38:19;11.80;67.00
5134;DHT22;2585;48.696;10.066;2023-06-26T01:40:46;11.70;70.50
5134;DHT22;2585;48.696;10.066;2023-06-26T01:46:23;11.60;75.30
5134;DHT22;2585;48.696;10.066;2023-06-26T01:52:09;11.70;75.40
5134;DHT22;2585;48.696;10.066;2023-06-26T01:54:43;11.60;74.10
5134;DHT22;2585;48.696;10.066;2023-06-26T01:57:13;11.50;76.20
5134;DHT22;2585;48.696;10.066;2023-06-26T01:59:42;11.50;77.40
5134;DHT22;2585;48.696;10.066;2023-06-26T02:02:09;11.40;78.80
5134;DHT22;2585;48.696;10.066;2023-06-26T02:04:36;11.40;80.00
5134;DHT22;2585;48.696;10.066;2023-06-26T02:07:04;11.30;80.80
5134;DHT22;2585;48.696;10.066;2023-06-26T02:09:31;11.30;82.30
5134;DHT22;2585;48.696;10.066;2023-06-26T02:11:57;11.40;83.10
5134;DHT22;2585;48.696;10.066;2023-06-26T02:14:24;11.40;83.70
5134;DHT22;2585;48.696;10.066;2023-06-26T02:16:51;11.30;83.20
5134;DHT22;2585;48.696;10.066;2023-06-26T02:19:18;11.20;83.40
5134;DHT22;2585;48.696;10.066;2023-06-26T02:21:51;11.30;84.20
5134;DHT22;2585;48.696;10.066;2023-06-26T02:24:17;11.30;85.00
5134;DHT22;2585;48.696;10.066;2023-06-26T02:26:44;11.30;85.00
5134;DHT22;2585;48.696;10.066;2023-06-26T02:29:12;11.30;85.20
5134;DHT22;2585;48.696;10.066;2023-06-26T02:31:39;11.20;85.60
5134;DHT22;2585;48.696;10.066;2023-06-26T02:34:06;11.30;85.80
5134;DHT22;2585;48.696;10.066;2023-06-26T02:36:33;11.20;85.40
5134;DHT22;2585;48.696;10.066;2023-06-26T02:39:00;11.20;84.80
5134;DHT22;2585;48.696;10.066;2023-06-26T02:41:27;11.10;85.00
5134;DHT22;2585;48.696;10.066;2023-06-26T02:43:53;11.10;85.50
5134;DHT22;2585;48.696;10.066;2023-06-26T02:46:20;11.10;86.30
5134;DHT22;2585;48.696;10.066;2023-06-26T02:48:47;11.10;86.70
5134;DHT22;2585;48.696;10.066;2023-06-26T02:51:14;11.10;86.50
5134;DHT22;2585;48.696;10.066;2023-06-26T02:53:40;11.10;86.50
5134;DHT22;2585;48.696;10.066;2023-06-26T02:56:07;11.10;86.80
5134;DHT22;2585;48.696;10.066;2023-06-26T02:58:34;11.00;86.80
5134;DHT22;2585;48.696;10.066;2023-06-26T03:01:01;11.00;87.10
5134;DHT22;2585;48.696;10.066;2023-06-26T03:03:28;11.00;87.40
5134;DHT22;2585;48.696;10.066;2023-06-26T03:05:55;10.90;87.60
5134;DHT22;2585;48.696;10.066;2023-06-26T03:08:21;10.90;87.90
5134;DHT22;2585;48.696;10.066;2023-06-26T03:10:48;10.90;88.20
5134;DHT22;2585;48.696;10.066;2023-06-26T03:13:15;10.90;88.30
5134;DHT22;2585;48.696;10.066;2023-06-26T03:15:42;10.90;88.10
5134;DHT22;2585;48.696;10.066;2023-06-26T03:18:08;10.90;87.80
5134;DHT22;2585;48.696;10.066;2023-06-26T03:20:36;10.80;87.70
5134;DHT22;2585;48.696;10.066;2023-06-26T03:23:03;10.80;88.00
5134;DHT22;2585;48.696;10.066;2023-06-26T03:25:30;10.80;88.50
5134;DHT22;2585;48.696;10.066;2023-06-26T03:27:57;10.80;88.80
5134;DHT22;2585;48.696;10.066;2023-06-26T03:30:24;10.80;89.00
5134;DHT22;2585;48.696;10.066;2023-06-26T03:32:51;10.80;89.30
5134;DHT22;2585;48.696;10.066;2023-06-26T03:35:18;10.80;89.40
5134;DHT22;2585;48.696;10.066;2023-06-26T03:37:45;10.80;89.70
5134;DHT22;2585;48.696;10.066;2023-06-26T03:40:11;10.80;89.70
5134;DHT22;2585;48.696;10.066;2023-06-26T03:42:38;10.80;89.90
5134;DHT22;2585;48.696;10.066;2023-06-26T03:45:05;10.80;90.00
5134;DHT22;2585;48.696;10.066;2023-06-26T03:47:32;10.80;89.70
5134;DHT22;2585;48.696;10.066;2023-06-26T03:49:59;10.80;89.90
5134;DHT22;2585;48.696;10.066;2023-06-26T03:52:26;10.80;90.00
5134;DHT22;2585;48.696;10.066;2023-06-26T03:54:53;10.80;90.00
5134;DHT22;2585;48.696;10.066;2023-06-26T03:57:20;10.80;90.10
5134;DHT22;2585;48.696;10.066;2023-06-26T03:59:46;10.90;90.20
5134;DHT22;2585;48.696;10.066;2023-06-26T04:02:13;10.90;90.20
5134;DHT22;2585;48.696;10.066;2023-06-26T04:04:40;10.90;90.30
5134;DHT22;2585;48.696;10.066;2023-06-26T04:07:07;11.00;90.40
5134;DHT22;2585;48.696;10.066;2023-06-26T04:09:34;11.00;90.40
5134;DHT22;2585;48.696;10.066;2023-06-26T04:12:02;11.10;90.50
5134;DHT22;2585;48.696;10.066;2023-06-26T04:14:29;11.20;90.50
5134;DHT22;2585;48.696;10.066;2023-06-26T04:16:55;11.20;90.50
5134;DHT22;2585;48.696;10.066;2023-06-26T04:19:24;11.20;90.60
5134;DHT22;2585;48.696;10.066;2023-06-26T04:21:51;11.20;90.60
5134;DHT22;2585;48.696;10.066;2023-06-26T04:24:18;11.30;90.70
5134;DHT22;2585;48.696;10.066;2023-06-26T04:26:44;11.30;90.70
5134;DHT22;2585;48.696;10.066;2023-06-26T04:29:12;11.40;90.80
5134;DHT22;2585;48.696;10.066;2023-06-26T04:31:39;11.40;90.80
5134;DHT22;2585;48.696;10.066;2023-06-26T04:34:06;11.50;90.90
5134;DHT22;2585;48.696;10.066;2023-06-26T04:36:33;11.50;90.90
5134;DHT22;2585;48.696;10.066;2023-06-26T04:39:05;11.60;90.80
5134;DHT22;2585;48.696;10.066;2023-06-26T04:41:32;11.60;90.60
5134;DHT22;2585;48.696;10.066;2023-06-26T04:43:59;11.70;90.50
5134;DHT22;2585;48.696;10.066;2023-06-26T04:46:26;11.80;90.30
5134;DHT22;2585;48.696;10.066;2023-06-26T04:48:54;11.80;90.00
5134;DHT22;2585;48.696;10.066;2023-06-26T04:51:21;11.90;89.20
5134;DHT22;2585;48.696;10.066;2023-06-26T04:53:48;12.00;88.90
5134;DHT22;2585;48.696;10.066;2023-06-26T04:56:14;12.00;88.60
5134;DHT22;2585;48.696;10.066;2023-06-26T04:58:41;12.20;87.70
5134;DHT22;2585;48.696;10.066;2023-06-26T05:01:08;12.20;87.50
5134;DHT22;2585;48.696;10.066;2023-06-26T05:03:35;12.30;86.40
5134;DHT22;2585;48.696;10.066;2023-06-26T05:06:03;12.50;84.90
5134;DHT22;2585;48.696;10.066;2023-06-26T05:08:35;12.60;81.90
5134;DHT22;2585;48.696;10.066;2023-06-26T05:11:02;12.70;80.10
5134;DHT22;2585;48.696;10.066;2023-06-26T05:13:29;12.80;77.00
5134;DHT22;2585;48.696;10.066;2023-06-26T05:15:55;12.90;75.80
5134;DHT22;2585;48.696;10.066;2023-06-26T05:18:22;13.00;74.10
5134;DHT22;2585;48.696;10.066;2023-06-26T05:20:49;13.10;72.00
5134;DHT22;2585;48.696;10.066;2023-06-26T05:23:17;13.20;69.30
5134;DHT22;2585;48.696;10.066;2023-06-26T05:25:45;13.40;64.30
5134;DHT22;2585;48.696;10.066;2023-06-26T05:28:12;13.60;46.30
5134;DHT22;2585;48.696;10.066;2023-06-26T05:30:40;13.80;1.00
5134;DHT22;2585;48.696;10.066;2023-06-26T05:33:10;13.90;1.00
5134;DHT22;2585;48.696;10.066;2023-06-26T05:35:37;14.00;1.00
5134;DHT22;2585;48.696;10.066;2023-06-26T05:38:04;14.10;4.30
5134;DHT22;2585;48.696;10.066;2023-06-26T05:40:32;14.40;15.90
5134;DHT22;2585;48.696;10.066;2023-06-26T05:43:01;14.50;1.00
5134;DHT22;2585;48.696;10.066;2023-06-26T05:45:27;14.70;1.00
5134;DHT22;2585;48.696;10.066;2023-06-26T05:47:54;14.70;1.00
5134;DHT22;2585;48.696;10.066;2023-06-26T05:50:21;14.80;1.00
5134;DHT22;2585;48.696;10.066;2023-06-26T05:52:49;14.90;1.00
5134;DHT22;2585;48.696;10.066;2023-06-26T05:55:16;15.00;1.00
5134;DHT22;2585;48.696;10.066;2023-06-26T05:57:43;15.10;1.00
5134;DHT22;2585;48.696;10.066;2023-06-26T06:00:11;15.30;1.00
5134;DHT22;2585;48.696;10.066;2023-06-26T06:02:39;15.50;89.70
5134;DHT22;2585;48.696;10.066;2023-06-26T06:05:08;15.70;72.50
5134;DHT22;2585;48.696;10.066;2023-06-26T06:07:35;15.90;73.10
5134;DHT22;2585;48.696;10.066;2023-06-26T06:10:03;16.10;58.00
5134;DHT22;2585;48.696;10.066;2023-06-26T06:12:30;16.30;1.00
5134;DHT22;2585;48.696;10.066;2023-06-26T06:14:57;16.60;1.00
5134;DHT22;2585;48.696;10.066;2023-06-26T06:17:24;16.90;91.40
5134;DHT22;2585;48.696;10.066;2023-06-26T06:19:51;17.10;1.00
5134;DHT22;2585;48.696;10.066;2023-06-26T06:22:18;17.40;74.70
5134;DHT22;2585;48.696;10.066;2023-06-26T06:24:44;17.60;1.00
5134;DHT22;2585;48.696;10.066;2023-06-26T06:27:11;17.80;1.00
5134;DHT22;2585;48.696;10.066;2023-06-26T06:29:38;18.10;1.00
5134;DHT22;2585;48.696;10.066;2023-06-26T06:32:06;18.30;1.00
5134;DHT22;2585;48.696;10.066;2023-06-26T06:34:33;18.50;90.50
5134;DHT22;2585;48.696;10.066;2023-06-26T06:37:00;18.80;90.40
5134;DHT22;2585;48.696;10.066;2023-06-26T06:39:26;19.10;91.10
5134;DHT22;2585;48.696;10.066;2023-06-26T06:41:53;19.40;1.00
5134;DHT22;2585;48.696;10.066;2023-06-26T06:44:20;19.70;77.70
5134;DHT22;2585;48.696;10.066;2023-06-26T06:46:48;20.10;1.00
5134;DHT22;2585;48.696;10.066;2023-06-26T06:49:15;20.40;1.00
5134;DHT22;2585;48.696;10.066;2023-06-26T06:51:41;20.70;68.20
5134;DHT22;2585;48.696;10.066;2023-06-26T06:54:08;21.00;18.40
5134;DHT22;2585;48.696;10.066;2023-06-26T06:56:35;21.20;1.00
5134;DHT22;2585;48.696;10.066;2023-06-26T06:59:02;21.50;90.70
5134;DHT22;2585;48.696;10.066;2023-06-26T07:01:29;21.80;71.00
5134;DHT22;2585;48.696;10.066;2023-06-26T07:03:56;22.20;26.50
5134;DHT22;2585;48.696;10.066;2023-06-26T07:06:24;22.60;15.20
5134;DHT22;2585;48.696;10.066;2023-06-26T07:08:51;22.90;1.00
5134;DHT22;2585;48.696;10.066;2023-06-26T07:11:18;23.10;1.00
5134;DHT22;2585;48.696;10.066;2023-06-26T07:13:44;23.40;1.00
5134;DHT22;2585;48.696;10.066;2023-06-26T07:16:14;23.60;1.00
5134;DHT22;2585;48.696;10.066;2023-06-26T07:18:42;24.10;1.00
5134;DHT22;2585;48.696;10.066;2023-06-26T07:21:10;24.30;95.60
5134;DHT22;2585;48.696;10.066;2023-06-26T07:23:37;24.50;94.00
5134;DHT22;2585;48.696;10.066;2023-06-26T07:26:04;24.80;88.10
5134;DHT22;2585;48.696;10.066;2023-06-26T07:28:31;25.00;85.80
5134;DHT22;2585;48.696;10.066;2023-06-26T07:30:58;25.40;89.40
5134;DHT22;2585;48.696;10.066;2023-06-26T07:33:25;25.70;81.30
5134;DHT22;2585;48.696;10.066;2023-06-26T07:35:51;26.20;76.90
5134;DHT22;2585;48.696;10.066;2023-06-26T07:38:18;26.60;77.80
5134;DHT22;2585;48.696;10.066;2023-06-26T07:40:45;26.60;64.00
5134;DHT22;2585;48.696;10.066;2023-06-26T07:43:12;27.00;53.60
5134;DHT22;2585;48.696;10.066;2023-06-26T07:45:39;26.80;28.40
5134;DHT22;2585;48.696;10.066;2023-06-26T07:48:06;27.00;16.50
5134;DHT22;2585;48.696;10.066;2023-06-26T07:50:33;27.30;18.40
5134;DHT22;2585;48.696;10.066;2023-06-26T07:52:59;27.20;1.00
5134;DHT22;2585;48.696;10.066;2023-06-26T07:55:26;27.40;1.00
5134;DHT22;2585;48.696;10.066;2023-06-26T07:57:53;27.80;1.00
5134;DHT22;2585;48.696;10.066;2023-06-26T08:00:22;27.80;1.00
5134;DHT22;2585;48.696;10.066;2023-06-26T08:02:48;28.20;1.00
5134;DHT22;2585;48.696;10.066;2023-06-26T08:05:15;28.10;1.00
5134;DHT22;2585;48.696;10.066;2023-06-26T08:07:42;28.30;1.00
5134;DHT22;2585;48.696;10.066;2023-06-26T08:10:10;28.40;1.00
5134;DHT22;2585;48.696;10.066;2023-06-26T08:12:37;28.50;1.00
5134;DHT22;2585;48.696;10.066;2023-06-26T08:15:07;28.50;1.00
5134;DHT22;2585;48.696;10.066;2023-06-26T08:17:35;28.40;1.00
5134;DHT22;2585;48.696;10.066;2023-06-26T08:20:02;28.60;1.00
5134;DHT22;2585;48.696;10.066;2023-06-26T08:22:30;28.60;1.00
5134;DHT22;2585;48.696;10.066;2023-06-26T08:24:57;28.90;1.00
5134;DHT22;2585;48.696;10.066;2023-06-26T08:27:24;29.00;1.00
5134;DHT22;2585;48.696;10.066;2023-06-26T08:29:51;29.00;96.70
5134;DHT22;2585;48.696;10.066;2023-06-26T08:32:18;29.00;95.60
5134;DHT22;2585;48.696;10.066;2023-06-26T08:34:45;29.40;95.50
5134;DHT22;2585;48.696;10.066;2023-06-26T08:37:14;29.40;94.70
5134;DHT22;2585;48.696;10.066;2023-06-26T08:39:41;29.10;93.70
5134;DHT22;2585;48.696;10.066;2023-06-26T08:42:08;29.50;93.70
5134;DHT22;2585;48.696;10.066;2023-06-26T08:44:35;29.10;92.10
5134;DHT22;2585;48.696;10.066;2023-06-26T08:47:12;29.50;92.20
5134;DHT22;2585;48.696;10.066;2023-06-26T08:49:53;29.20;91.10
5134;DHT22;2585;48.696;10.066;2023-06-26T08:52:23;29.00;90.90
5134;DHT22;2585;48.696;10.066;2023-06-26T08:55:02;29.30;91.10
5134;DHT22;2585;48.696;10.066;2023-06-26T08:57:30;29.60;91.10
5134;DHT22;2585;48.696;10.066;2023-06-26T08:59:58;30.00;90.30
5134;DHT22;2585;48.696;10.066;2023-06-26T09:02:25;29.60;89.10
5134;DHT22;2585;48.696;10.066;2023-06-26T09:04:52;29.60;89.50
5134;DHT22;2585;48.696;10.066;2023-06-26T09:07:19;30.10;89.40
5134;DHT22;2585;48.696;10.066;2023-06-26T09:09:46;30.20;88.20
5134;DHT22;2585;48.696;10.066;2023-06-26T09:12:13;30.30;88.70
5134;DHT22;2585;48.696;10.066;2023-06-26T09:14:41;30.60;86.60
5134;DHT22;2585;48.696;10.066;2023-06-26T09:17:08;30.50;84.80
5134;DHT22;2585;48.696;10.066;2023-06-26T09:19:37;30.80;86.30
5134;DHT22;2585;48.696;10.066;2023-06-26T09:22:11;30.70;84.50
5134;DHT22;2585;48.696;10.066;2023-06-26T09:24:38;30.80;84.60
5134;DHT22;2585;48.696;10.066;2023-06-26T09:27:07;30.70;82.70
5134;DHT22;2585;48.696;10.066;2023-06-26T09:29:34;30.60;81.40
5134;DHT22;2585;48.696;10.066;2023-06-26T09:32:01;30.50;81.40
5134;DHT22;2585;48.696;10.066;2023-06-26T09:34:32;30.90;82.40
5134;DHT22;2585;48.696;10.066;2023-06-26T09:36:59;31.10;80.50
5134;DHT22;2585;48.696;10.066;2023-06-26T09:39:32;31.30;80.50
5134;DHT22;2585;48.696;10.066;2023-06-26T09:41:59;30.90;79.50
5134;DHT22;2585;48.696;10.066;2023-06-26T09:44:33;31.20;80.80
5134;DHT22;2585;48.696;10.066;2023-06-26T09:47:01;31.10;78.70
5134;DHT22;2585;48.696;10.066;2023-06-26T09:49:29;31.20;77.80
5134;DHT22;2585;48.696;10.066;2023-06-26T09:52:00;31.20;78.30
5134;DHT22;2585;48.696;10.066;2023-06-26T09:54:27;31.80;78.40
5134;DHT22;2585;48.696;10.066;2023-06-26T09:57:07;32.10;77.70
5134;DHT22;2585;48.696;10.066;2023-06-26T09:59:35;31.80;76.00
5134;DHT22;2585;48.696;10.066;2023-06-26T10:02:02;31.60;74.90
5134;DHT22;2585;48.696;10.066;2023-06-26T10:04:29;31.70;76.50
5134;DHT22;2585;48.696;10.066;2023-06-26T10:06:57;32.30;75.50
5134;DHT22;2585;48.696;10.066;2023-06-26T10:09:25;32.30;74.40
5134;DHT22;2585;48.696;10.066;2023-06-26T10:12:03;31.80;73.10
5134;DHT22;2585;48.696;10.066;2023-06-26T10:14:37;32.10;73.20
5134;DHT22;2585;48.696;10.066;2023-06-26T10:17:10;32.40;72.90
5134;DHT22;2585;48.696;10.066;2023-06-26T10:19:43;32.30;73.90
5134;DHT22;2585;48.696;10.066;2023-06-26T10:22:12;32.50;72.40
5134;DHT22;2585;48.696;10.066;2023-06-26T10:24:41;33.10;72.60
5134;DHT22;2585;48.696;10.066;2023-06-26T10:27:17;33.20;72.10
5134;DHT22;2585;48.696;10.066;2023-06-26T10:29:56;33.60;71.30
5134;DHT22;2585;48.696;10.066;2023-06-26T10:32:26;32.60;69.90
5134;DHT22;2585;48.696;10.066;2023-06-26T10:34:55;32.50;71.00
5134;DHT22;2585;48.696;10.066;2023-06-26T10:37:43;32.50;69.60
5134;DHT22;2585;48.696;10.066;2023-06-26T10:40:12;33.50;71.40
5134;DHT22;2585;48.696;10.066;2023-06-26T10:42:39;32.90;69.10
5134;DHT22;2585;48.696;10.066;2023-06-26T10:45:28;33.00;70.30
5134;DHT22;2585;48.696;10.066;2023-06-26T10:47:57;32.70;67.90
5134;DHT22;2585;48.696;10.066;2023-06-26T10:50:29;32.50;69.20
5134;DHT22;2585;48.696;10.066;2023-06-26T10:55:56;32.10;68.10
5134;DHT22;2585;48.696;10.066;2023-06-26T10:58:34;32.30;67.90
5134;DHT22;2585;48.696;10.066;2023-06-26T11:01:25;33.10;69.10
5134;DHT22;2585;48.696;10.066;2023-06-26T11:06:31;33.60;68.30
5134;DHT22;2585;48.696;10.066;2023-06-26T11:14:22;31.10;65.90
5134;DHT22;2585;48.696;10.066;2023-06-26T11:16:49;31.80;66.60
5134;DHT22;2585;48.696;10.066;2023-06-26T11:19:17;32.30;67.60
5134;DHT22;2585;48.696;10.066;2023-06-26T11:21:45;32.10;65.20
5134;DHT22;2585;48.696;10.066;2023-06-26T11:24:13;32.00;66.00
5134;DHT22;2585;48.696;10.066;2023-06-26T11:26:40;31.60;65.90
5134;DHT22;2585;48.696;10.066;2023-06-26T11:29:08;30.70;65.20
5134;DHT22;2585;48.696;10.066;2023-06-26T11:31:40;30.00;64.70
5134;DHT22;2585;48.696;10.066;2023-06-26T11:34:08;29.50;67.60
5134;DHT22;2585;48.696;10.066;2023-06-26T11:36:37;29.20;66.50
5134;DHT22;2585;48.696;10.066;2023-06-26T11:39:06;28.80;66.20
5134;DHT22;2585;48.696;10.066;2023-06-26T11:41:39;28.70;66.40
5134;DHT22;2585;48.696;10.066;2023-06-26T11:44:08;28.70;66.90
5134;DHT22;2585;48.696;10.066;2023-06-26T11:46:37;28.70;67.00
5134;DHT22;2585;48.696;10.066;2023-06-26T11:49:08;28.90;67.20
5134;DHT22;2585;48.696;10.066;2023-06-26T11:51:35;29.30;66.70
5134;DHT22;2585;48.696;10.066;2023-06-26T11:54:05;29.40;68.00
5134;DHT22;2585;48.696;10.066;2023-06-26T11:56:32;30.60;68.50
5134;DHT22;2585;48.696;10.066;2023-06-26T11:59:01;31.10;68.40
5134;DHT22;2585;48.696;10.066;2023-06-26T12:04:03;31.10;66.20
5134;DHT22;2585;48.696;10.066;2023-06-26T12:06:33;30.60;66.20
5134;DHT22;2585;48.696;10.066;2023-06-26T12:09:02;29.90;65.90
5134;DHT22;2585;48.696;10.066;2023-06-26T12:11:33;30.00;67.30
5134;DHT22;2585;48.696;10.066;2023-06-26T12:14:01;29.40;67.10
5134;DHT22;2585;48.696;10.066;2023-06-26T12:16:29;29.30;67.60
5134;DHT22;2585;48.696;10.066;2023-06-26T12:19:04;29.20;67.80
5134;DHT22;2585;48.696;10.066;2023-06-26T12:24:05;29.10;67.80
5134;DHT22;2585;48.696;10.066;2023-06-26T12:26:33;29.10;68.40
5134;DHT22;2585;48.696;10.066;2023-06-26T12:29:07;29.10;68.10
5134;DHT22;2585;48.696;10.066;2023-06-26T12:31:35;28.80;69.00
5134;DHT22;2585;48.696;10.066;2023-06-26T12:34:13;28.90;69.20
5134;DHT22;2585;48.696;10.066;2023-06-26T12:36:52;29.10;70.60
5134;DHT22;2585;48.696;10.066;2023-06-26T12:39:20;29.70;70.50
5134;DHT22;2585;48.696;10.066;2023-06-26T12:41:58;29.80;70.30
5134;DHT22;2585;48.696;10.066;2023-06-26T12:44:28;29.30;70.80
5134;DHT22;2585;48.696;10.066;2023-06-26T12:47:00;29.40;70.80
5134;DHT22;2585;48.696;10.066;2023-06-26T12:49:37;30.20;71.00
5134;DHT22;2585;48.696;10.066;2023-06-26T12:52:09;30.90;69.10
5134;DHT22;2585;48.696;10.066;2023-06-26T12:54:39;31.00;68.60
5134;DHT22;2585;48.696;10.066;2023-06-26T12:57:07;31.00;68.00
5134;DHT22;2585;48.696;10.066;2023-06-26T12:59:36;31.50;68.80
5134;DHT22;2585;48.696;10.066;2023-06-26T13:02:03;31.90;68.30
5134;DHT22;2585;48.696;10.066;2023-06-26T13:04:31;32.20;68.50
5134;DHT22;2585;48.696;10.066;2023-06-26T13:06:58;31.80;67.30
5134;DHT22;2585;48.696;10.066;2023-06-26T13:09:25;31.00;65.70
5134;DHT22;2585;48.696;10.066;2023-06-26T13:11:53;30.40;68.00
5134;DHT22;2585;48.696;10.066;2023-06-26T13:14:20;29.90;66.50
5134;DHT22;2585;48.696;10.066;2023-06-26T13:16:47;29.40;66.50
5134;DHT22;2585;48.696;10.066;2023-06-26T13:19:14;29.20;67.60
5134;DHT22;2585;48.696;10.066;2023-06-26T13:21:42;28.80;67.70
5134;DHT22;2585;48.696;10.066;2023-06-26T13:24:08;29.10;69.80
5134;DHT22;2585;48.696;10.066;2023-06-26T13:26:35;30.00;70.90
5134;DHT22;2585;48.696;10.066;2023-06-26T13:29:04;30.00;71.50
5134;DHT22;2585;48.696;10.066;2023-06-26T13:31:32;30.50;70.70
5134;DHT22;2585;48.696;10.066;2023-06-26T13:34:00;30.30;70.30
5134;DHT22;2585;48.696;10.066;2023-06-26T13:36:27;29.70;69.60
5134;DHT22;2585;48.696;10.066;2023-06-26T13:38:54;29.40;70.30
5134;DHT22;2585;48.696;10.066;2023-06-26T13:41:24;28.70;71.60
5134;DHT22;2585;48.696;10.066;2023-06-26T13:43:52;28.20;72.20
5134;DHT22;2585;48.696;10.066;2023-06-26T13:46:21;28.60;75.60
5134;DHT22;2585;48.696;10.066;2023-06-26T13:48:48;29.50;74.10
5134;DHT22;2585;48.696;10.066;2023-06-26T13:51:15;30.00;74.40
5134;DHT22;2585;48.696;10.066;2023-06-26T13:53:42;30.70;76.00
5134;DHT22;2585;48.696;10.066;2023-06-26T13:56:09;31.00;74.40
5134;DHT22;2585;48.696;10.066;2023-06-26T13:58:36;30.40;73.00
5134;DHT22;2585;48.696;10.066;2023-06-26T14:01:03;30.20;72.80
5134;DHT22;2585;48.696;10.066;2023-06-26T14:03:31;29.60;72.50
5134;DHT22;2585;48.696;10.066;2023-06-26T14:05:58;29.50;73.80
5134;DHT22;2585;48.696;10.066;2023-06-26T14:08:25;29.40;74.10
5134;DHT22;2585;48.696;10.066;2023-06-26T14:10:52;29.70;74.30
5134;DHT22;2585;48.696;10.066;2023-06-26T14:13:19;30.20;75.30
5134;DHT22;2585;48.696;10.066;2023-06-26T14:15:49;30.50;74.10
5134;DHT22;2585;48.696;10.066;2023-06-26T14:18:19;30.90;73.80
5134;DHT22;2585;48.696;10.066;2023-06-26T14:20:48;31.10;72.80
5134;DHT22;2585;48.696;10.066;2023-06-26T14:23:15;30.30;72.10
5134;DHT22;2585;48.696;10.066;2023-06-26T14:25:42;30.50;73.70
5134;DHT22;2585;48.696;10.066;2023-06-26T14:28:09;30.90;74.40
5134;DHT22;2585;48.696;10.066;2023-06-26T14:30:35;31.20;73.40
5134;DHT22;2585;48.696;10.066;2023-06-26T14:33:02;30.80;72.70
5134;DHT22;2585;48.696;10.066;2023-06-26T14:35:29;30.60;73.10
5134;DHT22;2585;48.696;10.066;2023-06-26T14:37:56;29.80;72.80
5134;DHT22;2585;48.696;10.066;2023-06-26T14:40:23;29.10;74.00
5134;DHT22;2585;48.696;10.066;2023-06-26T14:42:50;28.80;75.20
5134;DHT22;2585;48.696;10.066;2023-06-26T14:45:18;29.30;76.20
5134;DHT22;2585;48.696;10.066;2023-06-26T14:47:45;29.30;76.50
5134;DHT22;2585;48.696;10.066;2023-06-26T14:50:12;29.40;78.30
5134;DHT22;2585;48.696;10.066;2023-06-26T14:52:39;29.50;75.40
5134;DHT22;2585;48.696;10.066;2023-06-26T14:55:06;29.20;75.60
5134;DHT22;2585;48.696;10.066;2023-06-26T14:57:34;29.10;75.50
5134;DHT22;2585;48.696;10.066;2023-06-26T15:00:01;29.00;76.20
5134;DHT22;2585;48.696;10.066;2023-06-26T15:02:29;29.10;76.40
5134;DHT22;2585;48.696;10.066;2023-06-26T15:04:56;29.30;76.70
5134;DHT22;2585;48.696;10.066;2023-06-26T15:07:23;29.30;76.30
5134;DHT22;2585;48.696;10.066;2023-06-26T15:09:50;29.40;76.10
5134;DHT22;2585;48.696;10.066;2023-06-26T15:12:17;29.30;75.40
5134;DHT22;2585;48.696;10.066;2023-06-26T15:14:44;29.10;74.50
5134;DHT22;2585;48.696;10.066;2023-06-26T15:17:11;28.70;74.30
5134;DHT22;2585;48.696;10.066;2023-06-26T15:19:38;28.40;74.80
5134;DHT22;2585;48.696;10.066;2023-06-26T15:22:05;28.20;75.80
5134;DHT22;2585;48.696;10.066;2023-06-26T15:24:32;28.30;75.60
5134;DHT22;2585;48.696;10.066;2023-06-26T15:26:59;28.30;74.80
5134;DHT22;2585;48.696;10.066;2023-06-26T15:29:26;28.70;75.20
5134;DHT22;2585;48.696;10.066;2023-06-26T15:31:53;28.60;74.00
5134;DHT22;2585;48.696;10.066;2023-06-26T15:34:20;28.20;73.30
5134;DHT22;2585;48.696;10.066;2023-06-26T15:36:48;28.00;73.00
5134;DHT22;2585;48.696;10.066;2023-06-26T15:39:15;28.10;73.30
5134;DHT22;2585;48.696;10.066;2023-06-26T15:41:43;28.10;72.90
5134;DHT22;2585;48.696;10.066;2023-06-26T15:44:10;27.90;72.20
5134;DHT22;2585;48.696;10.066;2023-06-26T15:46:37;28.00;71.90
5134;DHT22;2585;48.696;10.066;2023-06-26T15:49:04;28.00;72.80
5134;DHT22;2585;48.696;10.066;2023-06-26T15:51:31;27.70;72.10
5134;DHT22;2585;48.696;10.066;2023-06-26T15:54:00;27.80;71.10
5134;DHT22;2585;48.696;10.066;2023-06-26T15:56:27;27.60;71.20
5134;DHT22;2585;48.696;10.066;2023-06-26T15:58:54;27.50;70.50
5134;DHT22;2585;48.696;10.066;2023-06-26T16:01:21;27.40;70.70
5134;DHT22;2585;48.696;10.066;2023-06-26T16:03:48;27.10;70.00
5134;DHT22;2585;48.696;10.066;2023-06-26T16:06:15;27.10;70.40
5134;DHT22;2585;48.696;10.066;2023-06-26T16:08:42;27.10;70.60
5134;DHT22;2585;48.696;10.066;2023-06-26T16:11:11;27.00;70.30
5134;DHT22;2585;48.696;10.066;2023-06-26T16:13:37;27.00;70.00
5134;DHT22;2585;48.696;10.066;2023-06-26T16:16:05;26.90;70.50
5134;DHT22;2585;48.696;10.066;2023-06-26T16:18:31;26.70;69.80